Time;durP1;ratioP1;P1;durP2;ratioP2;P2;SDS_P1;SDS_P2;PMS_P1;PMS_P2;Temp;Humidity;BMP_temperature;BMP_pressure;BME280_temperature;BME280_humidity;BME280_pressure;Samples;Min_cycle;Max_cycle;Signal;HPM_P1;HPM_P2
2021/03/14 00:00:07;;;;;;;0.80;0.60;;;;;;;4.61;72.16;95453.09;4898267;29;20095;-80
2021/03/14 00:02:34;;;;;;;0.50;0.30;;;;;;;4.62;72.35;95444.38;4898017;29;20056;-80
2021/03/14 00:05:03;;;;;;;0.75;0.40;;;;;;;4.62;72.17;95449.53;4898054;29;20494;-80
2021/03/14 00:07:31;;;;;;;1.50;0.40;;;;;;;4.59;72.40;95442.13;4897973;29;20132;-80
2021/03/14 00:09:58;;;;;;;1.65;0.47;;;;;;;4.58;72.09;95419.88;4898344;29;20052;-80
2021/03/14 00:12:25;;;;;;;0.80;0.30;;;;;;;4.51;71.93;95417.97;4897991;29;20563;-79
2021/03/14 00:14:52;;;;;;;1.45;0.30;;;;;;;4.51;72.05;95428.31;4898002;29;20136;-80
2021/03/14 00:17:19;;;;;;;0.57;0.35;;;;;;;4.49;71.96;95435.41;4898481;29;20087;-80
2021/03/14 00:19:47;;;;;;;1.08;0.30;;;;;;;4.49;71.54;95458.66;4898033;29;20306;-80
2021/03/14 00:22:13;;;;;;;1.52;0.50;;;;;;;4.47;71.67;95463.19;4897493;29;20052;-80
2021/03/14 00:24:42;;;;;;;0.63;0.45;;;;;;;4.49;72.06;95475.94;4897743;29;20057;-79
2021/03/14 00:27:09;;;;;;;0.75;0.20;;;;;;;4.47;71.93;95476.09;4906593;29;20052;-80
2021/03/14 00:29:36;;;;;;;1.08;0.30;;;;;;;4.46;71.80;95476.25;4912770;29;20052;-80
2021/03/14 00:32:04;;;;;;;1.35;0.28;;;;;;;4.45;71.91;95475.47;4910079;29;20563;-80
2021/03/14 00:34:31;;;;;;;4.00;1.52;;;;;;;4.43;72.19;95477.41;4898496;29;20499;-80
2021/03/14 00:36:59;;;;;;;0.20;0.20;;;;;;;4.40;72.09;95477.78;4898346;29;20064;-80
2021/03/14 00:39:25;;;;;;;1.00;0.22;;;;;;;4.40;72.10;95475.19;4901994;29;20052;-80
2021/03/14 00:41:53;;;;;;;0.60;0.20;;;;;;;4.40;72.14;95480.34;4915769;29;20067;-81
2021/03/14 00:44:20;;;;;;;0.47;0.30;;;;;;;4.41;72.02;95478.56;4907183;29;20139;-80
2021/03/14 00:46:47;;;;;;;0.63;0.35;;;;;;;4.38;71.99;95484.88;4897932;29;20259;-80
2021/03/14 00:49:17;;;;;;;0.25;0.25;;;;;;;4.36;72.41;95476.50;4897835;29;20056;-80
2021/03/14 00:51:44;;;;;;;0.57;0.15;;;;;;;4.34;71.87;95492.16;4897907;29;20143;-80
2021/03/14 00:54:11;;;;;;;0.95;0.30;;;;;;;4.30;71.95;95492.66;4897658;29;20048;-80
2021/03/14 00:56:38;;;;;;;0.50;0.10;;;;;;;4.28;71.95;95490.25;4897674;29;20510;-80
2021/03/14 00:59:09;;;;;;;2.33;0.30;;;;;;;4.31;72.44;95495.09;4897803;29;20060;-80
2021/03/14 01:01:36;;;;;;;0.30;0.30;;;;;;;4.32;72.42;95482.97;4897696;29;20073;-80
2021/03/14 01:04:04;;;;;;;0.30;0.20;;;;;;;4.33;72.10;95492.34;4897251;29;20131;-80
2021/03/14 01:06:32;;;;;;;0.52;0.28;;;;;;;4.36;72.41;95497.16;4897490;29;20052;-80
2021/03/14 01:08:59;;;;;;;0.20;0.20;;;;;;;4.35;72.39;95490.38;4900548;29;20080;-79
2021/03/14 01:11:26;;;;;;;1.48;0.32;;;;;;;4.33;72.44;95492.34;4900879;29;20456;-79
2021/03/14 01:13:53;;;;;;;1.95;0.55;;;;;;;4.34;72.75;95493.94;4900407;29;20085;-80
2021/03/14 01:16:21;;;;;;;1.02;0.30;;;;;;;4.32;72.62;95501.03;4900660;29;20539;-79
2021/03/14 01:18:52;;;;;;;0.60;0.22;;;;;;;4.30;72.39;95487.50;4900824;29;20067;-80
2021/03/14 01:21:19;;;;;;;1.35;0.40;;;;;;;4.25;72.68;95485.44;4900763;29;20052;-80
2021/03/14 01:23:45;;;;;;;0.77;0.20;;;;;;;4.22;73.02;95488.38;4900442;29;20052;-80
2021/03/14 01:26:12;;;;;;;0.77;0.28;;;;;;;4.19;73.16;95485.31;4900297;29;20052;-80
2021/03/14 01:28:39;;;;;;;1.20;0.30;;;;;;;4.19;73.15;95473.19;4901086;29;20063;-80
2021/03/14 01:31:06;;;;;;;0.85;0.30;;;;;;;4.19;72.57;95486.09;4900885;29;20537;-80
2021/03/14 01:33:34;;;;;;;2.88;1.13;;;;;;;4.15;72.58;95494.34;4900325;29;20056;-80
2021/03/14 01:36:01;;;;;;;0.28;0.20;;;;;;;4.09;72.83;95501.81;4900373;29;20510;-80
2021/03/14 01:38:28;;;;;;;0.50;0.10;;;;;;;4.06;72.65;95512.44;4900097;29;20518;-80
2021/03/14 01:40:55;;;;;;;1.08;0.20;;;;;;;4.04;73.21;95518.75;4900217;29;20063;-80
2021/03/14 01:43:22;;;;;;;0.47;0.10;;;;;;;4.05;73.19;95510.84;4899847;29;20075;-79
2021/03/14 01:45:49;;;;;;;0.30;0.30;;;;;;;4.01;73.24;95504.41;4900242;29;20059;-80
2021/03/14 01:48:22;;;;;;;0.47;0.30;;;;;;;3.95;72.80;95517.97;4900250;29;20143;-80
2021/03/14 01:50:50;;;;;;;0.65;0.20;;;;;;;3.91;73.01;95519.28;4900147;29;20079;-80
2021/03/14 01:53:17;;;;;;;1.08;0.13;;;;;;;3.88;73.01;95515.25;4901740;29;20131;-80
2021/03/14 01:55:44;;;;;;;0.80;0.28;;;;;;;3.87;73.18;95515.41;4900240;29;20083;-80
2021/03/14 01:58:12;;;;;;;0.47;0.20;;;;;;;3.86;73.61;95506.09;4900261;29;20060;-80
2021/03/14 02:00:40;;;;;;;0.35;0.35;;;;;;;3.83;73.64;95496.13;4900219;29;20055;-80
2021/03/14 02:03:07;;;;;;;0.55;0.20;;;;;;;3.82;73.36;95499.66;4899305;29;20538;-80
2021/03/14 02:05:34;;;;;;;0.20;0.20;;;;;;;3.80;73.94;95509.31;4899883;29;20128;-80
2021/03/14 02:08:02;;;;;;;0.25;0.20;;;;;;;3.82;73.84;95515.13;4899757;29;20061;-80
2021/03/14 02:10:31;;;;;;;0.40;0.40;;;;;;;3.78;73.83;95513.84;4899998;29;20052;-80
2021/03/14 02:13:04;;;;;;;0.30;0.30;;;;;;;3.75;74.00;95503.88;4899863;29;20080;-80
2021/03/14 02:15:33;;;;;;;0.28;0.20;;;;;;;3.74;74.22;95517.72;4899737;29;20049;-80
2021/03/14 02:18:02;;;;;;;1.52;0.30;;;;;;;3.73;73.99;95519.50;4899548;29;20049;-80
2021/03/14 02:20:33;;;;;;;0.30;0.30;;;;;;;3.71;73.89;95524.81;4898862;29;20053;-80
2021/03/14 02:23:13;;;;;;;0.25;0.20;;;;;;;3.69;74.27;95531.91;4899062;29;20135;-80
2021/03/14 02:25:47;;;;;;;0.20;0.20;;;;;;;3.68;73.89;95530.31;4899883;29;20127;-80
2021/03/14 02:28:15;;;;;;;0.93;0.40;;;;;;;3.67;73.93;95538.22;4899788;29;20052;-80
2021/03/14 02:30:43;;;;;;;0.90;0.40;;;;;;;3.66;73.82;95540.00;4899373;29;20051;-79
2021/03/14 02:33:11;;;;;;;1.15;0.20;;;;;;;3.67;74.33;95539.03;4899514;29;20059;-80
2021/03/14 02:35:44;;;;;;;0.30;0.30;;;;;;;3.71;74.37;95535.13;4898982;29;20056;-80
2021/03/14 02:38:12;;;;;;;0.40;0.40;;;;;;;3.71;74.05;95529.97;4899241;29;20055;-80
2021/03/14 02:40:41;;;;;;;0.30;0.30;;;;;;;3.72;73.69;95541.91;4899064;29;20057;-80
2021/03/14 02:43:10;;;;;;;0.30;0.30;;;;;;;3.70;73.63;95543.84;4898801;29;20080;-80
2021/03/14 02:45:39;;;;;;;0.20;0.20;;;;;;;3.69;73.68;95541.44;4899105;29;20499;-79
2021/03/14 02:48:08;;;;;;;1.10;0.32;;;;;;;3.67;74.03;95535.63;4911224;29;20056;-80
2021/03/14 02:50:37;;;;;;;0.30;0.30;;;;;;;3.66;73.73;95542.56;4922284;29;20036;-80
2021/03/14 02:53:04;;;;;;;0.40;0.40;;;;;;;3.64;73.75;95539.34;4922185;29;20043;-80
2021/03/14 02:55:32;;;;;;;1.05;0.32;;;;;;;3.62;73.93;95543.88;4918333;29;20083;-80
2021/03/14 02:57:59;;;;;;;0.65;0.43;;;;;;;3.61;74.23;95544.84;4899096;29;20052;-80
2021/03/14 03:00:30;;;;;;;0.63;0.30;;;;;;;3.61;73.67;95547.44;4898966;29;20053;-80
2021/03/14 03:02:58;;;;;;;0.32;0.30;;;;;;;3.60;73.79;95552.75;4898929;29;20498;-80
2021/03/14 03:05:26;;;;;;;0.20;0.20;;;;;;;3.60;73.57;95558.69;4898944;29;20147;-80
2021/03/14 03:07:55;;;;;;;0.30;0.20;;;;;;;3.58;73.46;95559.84;4898932;29;20434;-80
2021/03/14 03:10:25;;;;;;;0.20;0.20;;;;;;;3.56;73.86;95567.72;4898359;29;20057;-80
2021/03/14 03:12:52;;;;;;;2.42;0.43;;;;;;;3.55;73.62;95576.44;4904917;29;20041;-80
2021/03/14 03:15:21;;;;;;;0.38;0.20;;;;;;;3.52;73.93;95589.66;4921667;29;20043;-81
2021/03/14 03:17:49;;;;;;;0.28;0.28;;;;;;;3.47;73.76;95591.91;4921148;29;20072;-80
2021/03/14 03:20:24;;;;;;;0.47;0.47;;;;;;;3.43;74.21;95585.47;4921006;29;20063;-80
2021/03/14 03:22:51;;;;;;;0.22;0.22;;;;;;;3.43;74.13;95588.03;4906067;29;20100;-80
2021/03/14 03:25:19;;;;;;;1.05;0.30;;;;;;;3.41;73.76;95593.38;4900517;29;20152;-80
2021/03/14 03:27:46;;;;;;;0.32;0.32;;;;;;;3.37;73.96;95591.25;4899236;29;20052;-80
2021/03/14 03:30:15;;;;;;;0.28;0.28;;;;;;;3.34;73.93;95589.81;4898596;29;20053;-80
2021/03/14 03:32:44;;;;;;;0.35;0.30;;;;;;;3.31;74.12;95590.16;4905229;29;20052;-80
2021/03/14 03:35:14;;;;;;;0.30;0.30;;;;;;;3.29;73.94;95595.47;4921153;29;20511;-80
2021/03/14 03:37:42;;;;;;;0.20;0.20;;;;;;;3.27;73.93;95605.13;4921008;29;20033;-80
2021/03/14 03:40:11;;;;;;;0.30;0.30;;;;;;;3.24;74.61;95605.44;4904925;29;20074;-80
2021/03/14 03:42:46;;;;;;;0.75;0.40;;;;;;;3.25;74.75;95612.22;4909529;23;20043;-79
2021/03/14 03:45:13;;;;;;;0.30;0.30;;;;;;;3.25;74.49;95612.22;4864690;29;20065;-79
2021/03/14 03:47:43;;;;;;;0.20;0.20;;;;;;;3.22;74.38;95612.53;4864164;29;20059;-78
2021/03/14 03:50:12;;;;;;;0.40;0.30;;;;;;;3.20;74.56;95629.94;4864094;29;20053;-77
2021/03/14 03:52:40;;;;;;;0.45;0.40;;;;;;;3.16;74.67;95623.47;4864903;29;20053;-77
2021/03/14 03:55:09;;;;;;;0.98;0.40;;;;;;;3.15;74.98;95644.25;4864043;29;20520;-78
2021/03/14 03:57:38;;;;;;;0.63;0.30;;;;;;;3.13;74.78;95644.44;4868752;29;20061;-79
2021/03/14 04:00:08;;;;;;;0.30;0.30;;;;;;;3.11;75.13;95651.50;4868794;29;20053;-79
2021/03/14 04:02:37;;;;;;;0.30;0.30;;;;;;;3.12;74.82;95653.09;4867016;29;20143;-78
2021/03/14 04:05:07;;;;;;;0.50;0.50;;;;;;;3.13;75.22;95657.31;4863706;29;20756;-79
2021/03/14 04:07:36;;;;;;;0.65;0.60;;;;;;;3.12;74.72;95660.84;4864041;29;20060;-77
2021/03/14 04:10:05;;;;;;;1.00;0.68;;;;;;;3.13;75.00;95680.50;4867292;29;20046;-77
2021/03/14 04:12:33;;;;;;;0.70;0.70;;;;;;;3.11;74.99;95679.84;4866090;29;20064;-77
2021/03/14 04:15:00;;;;;;;1.13;0.80;;;;;;;3.11;74.82;95673.91;4864520;29;20171;-79
2021/03/14 04:17:28;;;;;;;0.93;0.60;;;;;;;3.09;75.00;95679.19;4864680;29;20060;-78
2021/03/14 04:19:57;;;;;;;0.77;0.73;;;;;;;3.10;75.03;95696.25;4864167;29;20509;-77
2021/03/14 04:22:25;;;;;;;2.33;0.90;;;;;;;3.10;75.18;95698.84;4868911;29;20053;-80
2021/03/14 04:24:53;;;;;;;1.80;0.95;;;;;;;3.10;75.09;95696.25;4864345;29;20058;-77
2021/03/14 04:27:20;;;;;;;1.40;1.05;;;;;;;3.09;75.36;95704.97;4864417;29;20081;-77
2021/03/14 04:29:49;;;;;;;1.00;1.00;;;;;;;3.08;75.61;95718.78;4864652;29;20459;-78
2021/03/14 04:32:16;;;;;;;2.25;1.73;;;;;;;3.08;75.54;95721.38;4864249;29;20049;-78
2021/03/14 04:34:45;;;;;;;2.67;1.15;;;;;;;3.04;75.30;95722.66;4863842;29;20069;-78
2021/03/14 04:37:12;;;;;;;1.30;1.10;;;;;;;3.01;75.80;95726.34;4863620;29;20054;-77
2021/03/14 04:39:39;;;;;;;3.50;1.83;;;;;;;3.00;75.94;95727.31;4864024;29;20140;-77
2021/03/14 04:42:07;;;;;;;1.20;1.10;;;;;;;3.01;76.02;95733.28;4864666;29;20434;-77
2021/03/14 04:44:33;;;;;;;1.55;0.93;;;;;;;3.00;75.57;95740.19;4867453;29;20504;-77
2021/03/14 04:47:01;;;;;;;1.27;1.15;;;;;;;2.98;75.80;95744.69;4867732;29;20054;-78
2021/03/14 04:49:28;;;;;;;1.50;1.08;;;;;;;2.99;76.27;95753.22;4867886;29;20057;-76
2021/03/14 04:51:55;;;;;;;1.08;1.02;;;;;;;2.99;75.68;95755.81;4868141;29;20061;-78
2021/03/14 04:54:22;;;;;;;3.53;1.20;;;;;;;2.97;75.66;95752.56;4867497;29;20060;-77
2021/03/14 04:56:49;;;;;;;1.20;1.10;;;;;;;2.97;76.03;95755.16;4868109;29;20053;-80
2021/03/14 04:59:17;;;;;;;1.50;0.90;;;;;;;2.99;75.92;95760.97;4867840;29;20060;-78
2021/03/14 05:01:46;;;;;;;2.55;1.15;;;;;;;2.99;75.61;95750.66;4868675;29;20455;-78
2021/03/14 05:04:16;;;;;;;1.27;1.00;;;;;;;2.98;75.92;95759.38;4867726;29;20141;-79
2021/03/14 05:06:44;;;;;;;2.70;1.13;;;;;;;2.97;76.04;95760.31;4867621;29;20456;-78
2021/03/14 05:09:14;;;;;;;1.92;1.13;;;;;;;2.97;75.90;95768.03;4867883;29;20079;-78
2021/03/14 05:11:42;;;;;;;2.95;1.20;;;;;;;2.95;75.55;95765.63;4867449;29;20084;-78
2021/03/14 05:14:09;;;;;;;3.83;1.50;;;;;;;2.95;75.81;95777.69;4867212;29;20069;-77
2021/03/14 05:16:37;;;;;;;2.75;1.17;;;;;;;2.93;75.69;95777.88;4867221;29;20049;-77
2021/03/14 05:19:06;;;;;;;1.00;0.90;;;;;;;2.92;75.53;95778.00;4867061;29;20133;-77
2021/03/14 05:21:54;;;;;;;2.08;1.20;;;;;;;2.91;75.70;95790.09;4866719;29;20074;-78
2021/03/14 05:24:21;;;;;;;1.63;1.10;;;;;;;2.91;75.83;95791.84;4866470;29;20053;-76
2021/03/14 05:26:48;;;;;;;3.33;1.52;;;;;;;2.88;75.70;95798.91;4865411;29;20049;-78
2021/03/14 05:29:16;;;;;;;3.30;1.70;;;;;;;2.86;75.96;95800.84;4865111;29;20145;-77
2021/03/14 05:31:43;;;;;;;1.70;1.40;;;;;;;2.83;75.87;95808.88;4865049;29;20057;-77
2021/03/14 05:34:15;;;;;;;1.50;1.38;;;;;;;2.83;76.56;95806.28;4865510;29;20063;-79
2021/03/14 05:36:43;;;;;;;2.38;1.60;;;;;;;2.82;76.10;95807.28;4865935;29;20109;-80
2021/03/14 05:39:10;;;;;;;4.70;1.80;;;;;;;2.81;76.21;95813.38;4865918;29;20060;-78
2021/03/14 05:41:37;;;;;;;2.53;1.42;;;;;;;2.79;75.99;95820.44;4865802;29;20057;-77
2021/03/14 05:44:05;;;;;;;2.95;1.45;;;;;;;2.80;76.25;95819.50;4865365;29;20697;-79
2021/03/14 05:46:31;;;;;;;2.80;1.60;;;;;;;2.80;76.13;95828.97;4866292;29;20456;-84
2021/03/14 05:48:58;;;;;;;3.55;1.42;;;;;;;2.80;76.55;95824.63;4865604;29;20117;-77
2021/03/14 05:51:28;;;;;;;2.03;1.25;;;;;;;2.83;76.17;95837.19;4863826;29;20053;-84
2021/03/14 05:53:56;;;;;;;1.30;1.20;;;;;;;2.86;76.12;95848.97;4862642;29;20524;-78
2021/03/14 05:56:24;;;;;;;2.63;1.23;;;;;;;2.87;76.38;95851.41;4864706;29;20049;-78
2021/03/14 05:58:52;;;;;;;2.45;1.27;;;;;;;2.88;76.12;95858.16;4863914;29;20067;-78
2021/03/14 06:01:20;;;;;;;2.55;1.40;;;;;;;2.92;76.10;95856.09;4864106;29;20053;-79
2021/03/14 06:03:47;;;;;;;1.25;1.08;;;;;;;2.94;76.05;95858.53;4863680;29;20054;-78
2021/03/14 06:06:14;;;;;;;1.40;1.00;;;;;;;2.98;76.02;95867.56;4863971;29;20045;-79
2021/03/14 06:08:42;;;;;;;2.30;1.67;;;;;;;2.98;75.91;95870.94;4863915;29;20485;-79
2021/03/14 06:11:11;;;;;;;1.63;0.98;;;;;;;2.99;76.02;95872.53;4864368;29;20145;-78
2021/03/14 06:13:39;;;;;;;2.35;1.15;;;;;;;2.99;75.84;95877.69;4863423;29;20060;-79
2021/03/14 06:16:07;;;;;;;1.67;1.05;;;;;;;3.00;76.10;95891.41;4863699;29;20136;-78
2021/03/14 06:18:35;;;;;;;1.05;1.00;;;;;;;3.00;75.83;95883.69;4863603;29;20082;-79
2021/03/14 06:21:02;;;;;;;2.03;1.48;;;;;;;3.01;76.39;95895.59;4863881;29;20050;-78
2021/03/14 06:23:29;;;;;;;1.33;1.20;;;;;;;3.03;76.38;95891.09;4863937;29;20061;-79
2021/03/14 06:25:58;;;;;;;1.30;1.20;;;;;;;3.05;76.10;95902.06;4863469;29;20500;-78
2021/03/14 06:28:33;;;;;;;1.40;1.30;;;;;;;3.07;76.19;95907.88;4863449;29;20049;-79
2021/03/14 06:33:52;;;;;;;1.10;1.10;;;;;;;3.10;75.78;95912.72;5132253;27;20328;-82
2021/03/14 06:36:21;;;;;;;2.92;1.20;;;;;;;3.11;75.79;95913.53;5132341;28;20051;-79
2021/03/14 06:38:48;;;;;;;1.60;1.48;;;;;;;3.12;75.79;95925.44;5133483;28;20047;-81
2021/03/14 06:41:17;;;;;;;2.03;1.13;;;;;;;3.11;75.69;95914.34;5136295;28;20419;-77
2021/03/14 06:43:46;;;;;;;1.60;1.50;;;;;;;3.13;75.69;95919.31;5133780;28;20409;-77
2021/03/14 06:46:24;;;;;;;1.38;1.27;;;;;;;3.10;75.78;95928.16;5133468;27;20044;-79
2021/03/14 06:49:05;;;;;;;43.47;25.70;;;;;;;3.12;76.73;95936.56;5133491;27;20466;-77
2021/03/14 06:51:34;;;;;;;5.05;3.67;;;;;;;3.16;76.12;95943.03;5133397;28;20492;-80
2021/03/14 06:54:17;;;;;;;3.22;1.55;;;;;;;3.13;75.71;95947.66;5132737;27;20048;-77
2021/03/14 06:56:57;;;;;;;3.20;1.17;;;;;;;3.07;75.43;95955.06;5133267;28;20425;-78
2021/03/14 06:59:24;;;;;;;2.42;1.27;;;;;;;3.06;75.50;95962.94;5133428;27;20075;-78
2021/03/14 07:01:58;;;;;;;1.90;1.70;;;;;;;3.08;75.88;95963.59;5133208;27;20054;-78
2021/03/14 07:04:44;;;;;;;5.40;1.77;;;;;;;3.10;75.80;95969.41;5132693;27;20044;-78
2021/03/14 07:07:16;;;;;;;2.00;1.40;;;;;;;3.12;75.48;95980.38;5134807;27;20054;-79
2021/03/14 07:09:44;;;;;;;1.13;0.93;;;;;;;3.13;75.71;95983.75;5135576;27;20051;-77
2021/03/14 07:12:20;;;;;;;3.25;1.20;;;;;;;3.15;76.20;95986.97;5136079;27;20777;-80
2021/03/14 07:14:47;;;;;;;11.20;5.97;;;;;;;3.15;75.85;95986.97;5136509;28;20054;-80
2021/03/14 07:17:29;;;;;;;4.72;3.70;;;;;;;3.17;75.80;96001.38;5136362;28;20138;-81
2021/03/14 07:19:58;;;;;;;2.45;1.30;;;;;;;3.16;75.82;96012.63;5136721;27;20047;-81
2021/03/14 07:22:25;;;;;;;2.35;1.13;;;;;;;3.18;75.71;96018.44;5134338;28;20044;-77
2021/03/14 07:24:52;;;;;;;1.20;1.08;;;;;;;3.18;75.98;96023.59;5134522;28;20047;-77
2021/03/14 07:27:21;;;;;;;2.33;1.10;;;;;;;3.19;75.79;96029.53;5132720;27;20047;-79
2021/03/14 07:29:48;;;;;;;1.30;0.95;;;;;;;3.20;76.04;96037.13;5133013;27;20050;-77
2021/03/14 07:32:15;;;;;;;1.63;1.20;;;;;;;3.18;75.47;96039.06;5136062;27;20047;-77
2021/03/14 07:34:43;;;;;;;1.05;1.05;;;;;;;3.17;75.80;96042.59;5131980;28;20043;-78
2021/03/14 07:37:10;;;;;;;2.05;0.98;;;;;;;3.15;75.75;96039.34;5132153;28;20040;-78
2021/03/14 07:39:37;;;;;;;0.95;0.90;;;;;;;3.19;75.79;96050.16;5135401;28;20044;-87
2021/03/14 07:42:04;;;;;;;1.73;1.00;;;;;;;3.23;75.89;96049.72;5136690;27;20049;-87
2021/03/14 07:44:31;;;;;;;1.33;1.02;;;;;;;3.23;75.76;96052.28;5126485;28;20048;-81
2021/03/14 07:46:58;;;;;;;1.77;0.90;;;;;;;3.24;75.84;96053.13;5121755;28;20142;-78
2021/03/14 07:49:27;;;;;;;17.60;10.00;;;;;;;3.27;76.39;96053.63;5119510;28;20070;-79
2021/03/14 07:51:55;;;;;;;4.28;2.95;;;;;;;3.29;76.45;96064.59;5116583;27;20047;-82
2021/03/14 07:54:29;;;;;;;2.95;1.23;;;;;;;3.33;76.29;96067.69;5122824;27;20039;-77
2021/03/14 07:56:59;;;;;;;3.40;1.40;;;;;;;3.37;75.85;96074.16;5120058;27;20425;-77
2021/03/14 07:59:28;;;;;;;2.08;1.70;;;;;;;3.40;75.81;96083.38;5119098;28;20048;-79
2021/03/14 08:02:26;;;;;;;1.50;1.02;;;;;;;3.45;75.72;96094.03;5120878;27;20051;-78
2021/03/14 08:04:55;;;;;;;1.88;1.00;;;;;;;3.44;75.50;96090.66;5118696;28;20051;-78
2021/03/14 08:07:41;;;;;;;2.85;1.20;;;;;;;3.44;75.52;96095.81;5118238;28;20051;-78
2021/03/14 08:10:10;;;;;;;1.10;1.00;;;;;;;3.42;75.24;96097.72;5119617;28;20520;-76
2021/03/14 08:12:38;;;;;;;3.35;1.00;;;;;;;3.45;75.14;96109.50;5119551;27;20039;-78
2021/03/14 08:15:21;;;;;;;1.90;0.90;;;;;;;3.46;75.59;96111.13;5119274;28;20526;-78
2021/03/14 08:17:49;;;;;;;1.88;1.45;;;;;;;3.47;75.30;96107.59;5119632;28;20062;-78
2021/03/14 08:20:36;;;;;;;0.90;0.88;;;;;;;3.49;75.78;96119.34;5120603;28;20401;-83
2021/03/14 08:23:03;;;;;;;1.85;1.05;;;;;;;3.54;75.16;96120.69;5120610;28;20071;-80
2021/03/14 08:25:36;;;;;;;2.17;1.20;;;;;;;3.58;75.07;96119.44;5120022;28;20050;-77
2021/03/14 08:28:24;;;;;;;1.88;1.15;;;;;;;3.59;74.62;96119.28;5120389;28;20039;-81
2021/03/14 08:30:51;;;;;;;2.78;1.40;;;;;;;3.59;74.22;96123.66;5121358;27;20063;-78
2021/03/14 08:33:40;;;;;;;1.95;1.10;;;;;;;3.59;74.56;96129.59;5119575;28;20054;-81
2021/03/14 08:36:08;;;;;;;3.15;1.10;;;;;;;3.63;74.75;96140.41;5120227;28;20059;-78
2021/03/14 08:38:47;;;;;;;4.82;1.60;;;;;;;3.62;74.16;96139.63;5119924;28;20078;-79
2021/03/14 08:41:26;;;;;;;3.88;1.20;;;;;;;3.58;74.11;96145.22;5119530;28;20073;-78
2021/03/14 08:43:58;;;;;;;3.05;1.20;;;;;;;3.50;73.48;96145.97;5118331;27;20059;-77
2021/03/14 08:47:04;;;;;;;2.65;1.08;;;;;;;3.41;73.03;96157.16;5119500;28;20136;-78
2021/03/14 08:49:36;;;;;;;2.78;1.42;;;;;;;3.36;73.43;96154.22;5119050;28;20048;-78
2021/03/14 08:52:03;;;;;;;1.98;1.35;;;;;;;3.35;73.35;96153.41;5117588;27;20416;-77
2021/03/14 08:54:37;;;;;;;3.13;1.05;;;;;;;3.33;73.27;96149.38;5117533;28;20056;-81
2021/03/14 08:57:06;;;;;;;13.05;7.35;;;;;;;3.33;73.96;96149.38;5116181;28;20043;-78
2021/03/14 08:59:34;;;;;;;3.35;1.83;;;;;;;3.38;74.13;96147.16;5118248;27;20420;-76
2021/03/14 09:02:02;;;;;;;4.10;1.48;;;;;;;3.47;73.98;96156.56;5117433;28;20134;-77
2021/03/14 09:04:31;;;;;;;2.17;1.17;;;;;;;3.61;73.50;96148.31;5117400;28;20051;-77
2021/03/14 09:07:09;;;;;;;3.25;1.35;;;;;;;3.70;73.28;96142.25;5117752;28;20417;-78
2021/03/14 09:09:36;;;;;;;3.60;1.65;;;;;;;3.78;73.12;96151.00;5117612;28;20051;-78
2021/03/14 09:12:09;;;;;;;3.33;1.50;;;;;;;3.79;72.88;96148.28;5118155;27;20047;-78
2021/03/14 09:14:40;;;;;;;3.22;1.48;;;;;;;3.87;73.18;96155.25;5117911;28;20051;-77
2021/03/14 09:17:12;;;;;;;3.80;2.35;;;;;;;3.96;72.75;96146.63;5118013;28;20048;-79
2021/03/14 09:19:42;;;;;;;3.38;1.73;;;;;;;4.19;72.77;96143.53;5117954;28;20058;-77
2021/03/14 09:22:12;;;;;;;2.28;1.50;;;;;;;4.42;72.59;96146.41;5117764;28;20055;-78
2021/03/14 09:24:53;;;;;;;;;;;;;;;4.75;71.53;96137.00;5118380;28;20048;-78
2021/03/14 09:27:22;;;;;;;3.85;1.60;;;;;;;4.99;70.52;96149.19;5117787;28;19919;-77
2021/03/14 09:29:51;;;;;;;4.40;1.30;;;;;;;5.12;70.09;96138.41;5117647;27;20083;-77
2021/03/14 09:32:34;;;;;;;5.22;1.10;;;;;;;5.28;69.34;96148.75;5118301;28;20054;-79
2021/03/14 09:35:21;;;;;;;3.75;1.45;;;;;;;5.35;67.15;96149.72;5117692;28;20486;-79
2021/03/14 09:37:51;;;;;;;4.18;1.00;;;;;;;5.29;66.89;96145.22;5118937;28;20044;-78
2021/03/14 09:40:27;;;;;;;4.97;1.35;;;;;;;5.13;65.39;96145.97;5118014;28;20051;-78
2021/03/14 10:43:23;;;;;;;2.85;1.05;;;;;;;4.82;65.40;96200.03;4137432;23;20054;-79
2021/03/14 10:59:03;;;;;;;3.28;1.30;;;;;;;5.74;63.55;96190.50;5055023;23;20129;-80
2021/03/14 11:28:47;;;;;;;0.85;0.65;;;;;;;5.89;58.89;96179.53;5041075;28;20044;-80
2021/03/14 11:31:18;;;;;;;2.25;0.90;;;;;;;5.85;59.48;96186.00;5041573;28;20050;-80
2021/03/14 11:33:47;;;;;;;3.92;1.10;;;;;;;5.76;60.36;96205.88;5050847;28;20040;-80
2021/03/14 12:41:37;;;;;;;8.77;3.63;;;;;;;6.18;60.05;96172.06;2906823;23;20041;-81
2021/03/14 14:31:11;;;;;;;2.15;0.93;;;;;;;6.55;60.36;96194.00;5254389;23;20025;-80
2021/03/14 14:33:41;;;;;;;1.58;1.23;;;;;;;6.49;60.52;96181.72;5038409;28;20038;-80
2021/03/14 14:41:48;;;;;;;0.75;0.75;;;;;;;6.28;60.91;96199.59;5038405;28;20056;-80
2021/03/14 14:44:23;;;;;;;1.85;0.98;;;;;;;6.23;61.58;96200.09;5039510;28;20050;-81
2021/03/14 14:49:32;;;;;;;4.13;1.95;;;;;;;6.21;61.93;96198.59;5796183;23;20050;-79
2021/03/14 14:51:58;;;;;;;0.98;0.63;;;;;;;6.14;61.56;96207.06;5017292;28;20046;-79
2021/03/14 15:43:56;;;;;;;0.85;0.40;;;;;;;5.40;66.41;96228.63;5676839;23;20050;-80
2021/03/14 15:46:22;;;;;;;1.48;0.60;;;;;;;5.40;66.39;96231.22;5016353;28;20050;-81
2021/03/14 15:48:49;;;;;;;0.65;0.65;;;;;;;5.36;66.37;96228.97;5017677;28;20050;-81
2021/03/14 15:51:16;;;;;;;1.02;0.60;;;;;;;5.33;66.49;96229.25;5016799;28;20050;-81
2021/03/14 15:53:42;;;;;;;0.95;0.80;;;;;;;5.31;66.75;96226.03;5017436;28;20061;-80
2021/03/14 15:56:09;;;;;;;1.63;0.77;;;;;;;5.28;66.57;96236.69;5015712;28;20061;-79
2021/03/14 15:58:40;;;;;;;1.20;1.13;;;;;;;5.29;67.13;96238.31;5015755;28;20518;-80
2021/03/14 16:01:11;;;;;;;1.38;0.70;;;;;;;5.24;67.21;96232.78;4985807;28;20054;-79
2021/03/14 16:03:37;;;;;;;2.05;0.80;;;;;;;5.18;66.89;96238.59;4997727;28;20081;-77
2021/03/14 16:06:06;;;;;;;1.10;1.00;;;;;;;5.13;67.04;96239.06;4997395;28;20567;-79
2021/03/14 16:08:33;;;;;;;1.45;0.63;;;;;;;5.13;67.50;96238.25;5010831;28;20423;-80
2021/03/14 16:11:00;;;;;;;0.93;0.80;;;;;;;5.14;67.33;96234.72;4997168;28;20412;-81
2021/03/14 16:13:26;;;;;;;0.95;0.65;;;;;;;5.12;67.59;96242.63;4993512;28;20050;-80
2021/03/14 16:15:53;;;;;;;1.45;0.85;;;;;;;5.11;67.60;96241.00;5003155;28;20189;-79
2021/03/14 16:18:21;;;;;;;0.95;0.80;;;;;;;5.09;67.84;96242.91;4995818;28;20050;-80
2021/03/14 16:20:48;;;;;;;12.02;1.90;;;;;;;5.08;68.28;96240.50;4995365;28;20583;-80
2021/03/14 16:23:15;;;;;;;1.23;0.88;;;;;;;5.07;68.20;96250.03;4995014;28;20053;-80
2021/03/14 16:25:41;;;;;;;0.57;0.57;;;;;;;5.05;68.12;96245.97;4996205;28;20050;-80
2021/03/14 16:28:09;;;;;;;0.90;0.70;;;;;;;5.00;68.09;96253.41;5008924;28;20058;-79
2021/03/14 16:30:37;;;;;;;1.02;0.82;;;;;;;4.98;68.40;96250.97;5005368;28;20070;-80
2021/03/14 16:33:05;;;;;;;0.77;0.77;;;;;;;4.98;68.88;96250.16;4994820;28;20481;-81
2021/03/14 16:35:33;;;;;;;8.90;5.05;;;;;;;4.94;68.61;96254.81;4995604;28;20046;-80
2021/03/14 16:38:02;;;;;;;3.15;2.67;;;;;;;4.89;68.72;96260.44;5000016;28;20046;-80
2021/03/14 16:40:29;;;;;;;1.85;1.15;;;;;;;4.84;69.22;96260.09;4995563;28;20042;-80
2021/03/14 16:42:55;;;;;;;0.70;0.70;;;;;;;4.80;69.12;96263.16;4995117;28;20046;-80
2021/03/14 16:45:24;;;;;;;1.77;0.70;;;;;;;4.74;68.86;96264.56;4995648;28;20046;-81
2021/03/14 16:47:52;;;;;;;0.90;0.90;;;;;;;4.66;69.26;96262.75;4995751;28;20054;-81
2021/03/14 16:50:19;;;;;;;0.82;0.82;;;;;;;4.59;69.74;96269.50;4995552;28;20452;-80
2021/03/14 16:52:47;;;;;;;1.50;1.20;;;;;;;4.55;69.44;96263.03;5001983;28;20089;-80
2021/03/14 16:55:17;;;;;;;1.45;1.10;;;;;;;4.50;69.50;96266.06;5004238;28;20050;-80
2021/03/14 17:00:11;;;;;;;1.55;1.40;;;;;;;4.45;69.79;96281.19;5031848;28;20034;-81
2021/03/14 17:02:38;;;;;;;1.30;1.20;;;;;;;4.43;69.64;96272.78;5031346;28;20054;-79
2021/03/14 17:05:06;;;;;;;1.58;1.48;;;;;;;4.41;70.25;96282.44;5031487;28;20065;-82
2021/03/14 17:07:33;;;;;;;1.77;1.63;;;;;;;4.38;69.92;96282.78;5032905;28;20408;-80
2021/03/14 17:10:00;;;;;;;1.80;1.70;;;;;;;4.34;69.91;96287.41;5032459;28;20050;-81
2021/03/14 17:12:29;;;;;;;2.15;1.95;;;;;;;4.29;70.11;96287.06;5029651;28;20563;-80
2021/03/14 17:14:56;;;;;;;1.17;1.15;;;;;;;4.24;70.24;96283.28;5025904;28;20064;-81
2021/03/14 17:17:23;;;;;;;2.40;1.60;;;;;;;4.21;70.44;96288.78;5024935;28;20058;-80
2021/03/14 17:19:50;;;;;;;1.38;1.20;;;;;;;4.19;70.61;96288.09;5025090;28;20046;-81
2021/03/14 17:22:16;;;;;;;1.38;1.25;;;;;;;4.19;70.68;96288.91;5022979;28;20045;-79
2021/03/14 17:24:43;;;;;;;2.03;1.80;;;;;;;4.21;70.95;96297.31;5014687;28;20049;-79
2021/03/14 17:27:11;;;;;;;1.70;1.60;;;;;;;4.22;70.71;96300.69;5014723;28;20054;-79